createdAt,value
2023-04-15T00:01:03.789Z,4.28
2023-04-15T00:06:05.898Z,5.60
2023-04-15T00:11:07.754Z,4.78
2023-04-15T00:16:10.780Z,4.75
2023-04-15T00:21:12.735Z,4.30
2023-04-15T00:26:14.532Z,8.80
2023-04-15T00:31:17.114Z,5.15
2023-04-15T00:36:19.366Z,8.15
2023-04-15T00:41:21.236Z,8.25
2023-04-15T00:46:23.235Z,7.95
2023-04-15T00:51:25.608Z,8.05
2023-04-15T00:56:29.276Z,7.45
2023-04-15T01:01:31.508Z,8.47
2023-04-15T01:06:33.578Z,6.72
2023-04-15T01:11:35.692Z,8.45
2023-04-15T01:16:39.822Z,16.48
2023-04-15T01:21:41.628Z,9.00
2023-04-15T01:26:45.095Z,10.18
2023-04-15T01:31:52.403Z,10.77
2023-04-15T01:36:54.225Z,7.40
2023-04-15T01:41:57.454Z,7.93
2023-04-15T01:46:59.774Z,8.95
2023-04-15T01:52:01.954Z,12.82
2023-04-15T01:57:03.896Z,12.15
2023-04-15T02:02:05.773Z,6.53
2023-04-15T02:07:07.552Z,7.55
2023-04-15T02:12:10.577Z,11.55
2023-04-15T02:17:12.311Z,7.63
2023-04-15T02:22:18.453Z,6.80
2023-04-15T02:27:22.516Z,6.35
2023-04-15T02:32:25.567Z,6.63
2023-04-15T02:37:31.720Z,6.68
2023-04-15T02:42:33.561Z,8.65
2023-04-15T02:47:36.482Z,7.75
2023-04-15T02:52:41.861Z,8.43
2023-04-15T02:57:43.995Z,12.07
2023-04-15T03:02:47.315Z,8.13
2023-04-15T03:07:49.214Z,7.40
2023-04-15T03:12:51.149Z,6.95
2023-04-15T03:17:55.432Z,11.18
2023-04-15T03:22:57.433Z,9.70
2023-04-15T03:28:00.607Z,9.25
2023-04-15T03:33:02.474Z,10.48
2023-04-15T03:38:04.792Z,11.10
2023-04-15T03:43:06.679Z,7.97
2023-04-15T03:48:17.173Z,8.52
2023-04-15T03:53:22.688Z,9.57
2023-04-15T04:03:26.435Z,12.57
2023-04-15T04:08:28.245Z,9.90
2023-04-15T04:13:29.971Z,11.95
2023-04-15T04:18:32.636Z,13.93
2023-04-15T04:23:34.292Z,14.02
2023-04-15T04:28:36.415Z,17.30
2023-04-15T04:33:38.124Z,24.83
2023-04-15T04:38:39.788Z,28.05
2023-04-15T04:43:41.762Z,30.63
2023-04-15T04:48:43.943Z,32.28
2023-04-15T04:53:46.585Z,32.50
2023-04-15T04:58:48.292Z,32.80
2023-04-15T05:03:50.105Z,33.70
2023-04-15T05:08:51.973Z,30.63
2023-04-15T05:13:53.714Z,33.65
2023-04-15T05:18:55.579Z,34.53
2023-04-15T05:23:57.420Z,32.22
2023-04-15T05:28:59.321Z,26.63
2023-04-15T05:34:01.500Z,20.52
2023-04-15T05:39:04.050Z,21.45
2023-04-15T05:44:06.271Z,20.65
2023-04-15T05:49:08.103Z,18.98
2023-04-15T05:54:10.041Z,15.07
2023-04-15T05:59:11.763Z,12.73
2023-04-15T06:04:13.631Z,15.60
2023-04-15T06:09:15.870Z,17.15
2023-04-15T06:14:17.625Z,14.43
2023-04-15T06:19:19.557Z,14.82
2023-04-15T06:24:21.465Z,12.75
2023-04-15T06:29:23.238Z,12.27
2023-04-15T06:34:25.012Z,13.68
2023-04-15T06:39:26.964Z,12.15
2023-04-15T06:44:30.070Z,10.80
2023-04-15T06:49:33.676Z,9.23
2023-04-15T06:54:35.382Z,10.68
2023-04-15T06:59:37.127Z,7.38
2023-04-15T07:04:40.123Z,6.70
2023-04-15T07:09:42.068Z,7.75
2023-04-15T07:14:43.750Z,6.38
2023-04-15T07:19:45.442Z,7.03
2023-04-15T07:24:47.147Z,10.25
2023-04-15T07:29:49.055Z,7.88
2023-04-15T07:34:50.746Z,8.95
2023-04-15T07:39:52.986Z,8.90
2023-04-15T07:44:54.744Z,7.18
2023-04-15T07:49:56.516Z,6.70
2023-04-15T07:54:58.432Z,6.90
2023-04-15T08:00:00.783Z,8.02
2023-04-15T08:05:04.442Z,12.45
2023-04-15T08:10:06.976Z,12.50
2023-04-15T08:15:09.362Z,11.65
2023-04-15T08:20:11.688Z,8.32
2023-04-15T08:25:13.425Z,7.63
2023-04-15T08:30:15.356Z,9.85
2023-04-15T08:35:17.156Z,8.23
2023-04-15T08:40:19.001Z,5.63
2023-04-15T08:45:21.264Z,5.68
2023-04-15T08:50:24.680Z,4.80
2023-04-15T08:55:33.249Z,6.13
2023-04-15T09:00:34.970Z,3.10
2023-04-15T09:05:37.452Z,8.00
2023-04-15T09:10:41.423Z,7.32
2023-04-15T09:15:44.101Z,5.57
2023-04-15T09:20:45.860Z,4.00
2023-04-15T09:25:49.582Z,3.85
2023-04-15T09:30:55.267Z,4.00
2023-04-15T09:36:02.525Z,4.45
2023-04-15T09:41:16.901Z,3.83
2023-04-15T09:46:18.760Z,7.30
2023-04-15T09:51:35.059Z,5.40
2023-04-15T09:56:41.415Z,3.17
2023-04-15T10:01:43.679Z,2.78
2023-04-15T10:06:45.520Z,3.05
2023-04-15T10:11:49.777Z,2.58
2023-04-15T10:16:53.571Z,3.28
2023-04-15T10:21:55.980Z,3.73
2023-04-15T10:26:58.860Z,5.80
2023-04-15T10:32:01.377Z,4.30
2023-04-15T10:37:03.930Z,5.85
2023-04-15T10:42:08.461Z,6.07
2023-04-15T10:47:12.618Z,8.90
2023-04-15T10:52:16.778Z,7.95
2023-04-15T10:57:24.505Z,7.78
2023-04-15T11:03:15.206Z,7.75
2023-04-15T11:08:41.249Z,7.13
2023-04-15T11:13:50.935Z,8.70
2023-04-15T11:18:56.423Z,12.07
2023-04-15T11:23:58.245Z,9.15
2023-04-15T11:29:01.638Z,8.85
2023-04-15T11:34:03.665Z,6.73
2023-04-15T11:39:07.689Z,8.63
2023-04-15T11:44:19.306Z,6.93
2023-04-15T11:49:32.119Z,7.95
2023-04-15T11:54:37.528Z,6.30
2023-04-15T11:59:45.350Z,6.80
2023-04-15T12:04:48.171Z,6.22
2023-04-15T12:10:10.151Z,5.45
2023-04-15T12:15:15.922Z,5.45
2023-04-15T12:20:26.997Z,6.00
2023-04-15T12:25:35.635Z,5.93
2023-04-15T12:30:52.486Z,6.35
2023-04-15T12:35:54.276Z,5.63
2023-04-15T12:40:56.003Z,5.35
2023-04-15T12:45:57.770Z,5.32
2023-04-15T12:50:59.561Z,6.70
2023-04-15T12:56:01.343Z,6.88
2023-04-15T13:01:16.860Z,6.13
2023-04-15T13:06:19.048Z,7.45
2023-04-15T13:11:22.499Z,6.88
2023-04-15T13:16:24.697Z,4.38
2023-04-15T13:21:27.277Z,5.00
2023-04-15T13:26:29.225Z,4.47
2023-04-15T13:31:31.083Z,4.30
2023-04-15T13:36:33.283Z,5.22
2023-04-15T13:41:34.990Z,6.38
2023-04-15T13:46:37.771Z,5.53
2023-04-15T13:51:40.526Z,5.15
2023-04-15T13:56:42.371Z,4.57
2023-04-15T14:01:44.979Z,7.22
2023-04-15T14:06:46.930Z,7.85
2023-04-15T14:11:59.596Z,6.40
2023-04-15T14:17:34.711Z,5.90
2023-04-15T14:23:02.913Z,4.93
2023-04-15T14:28:24.323Z,4.45
2023-04-15T14:33:40.397Z,5.30
2023-04-15T14:44:14.821Z,5.07
2023-04-15T14:49:20.071Z,4.88
2023-04-15T14:54:22.574Z,4.13
2023-04-15T14:59:24.543Z,3.30
2023-04-15T15:04:26.427Z,5.88
2023-04-15T15:09:29.025Z,3.95
2023-04-15T15:14:30.810Z,4.38
2023-04-15T15:19:32.876Z,5.32
2023-04-15T15:24:34.586Z,4.72
2023-04-15T15:29:38.189Z,4.55
2023-04-15T15:34:39.915Z,4.03
2023-04-15T15:39:41.705Z,8.00
2023-04-15T15:44:47.164Z,26.25
2023-04-15T15:49:51.825Z,6.00
2023-04-15T15:54:53.566Z,4.28
2023-04-15T16:00:07.830Z,6.22
2023-04-15T16:05:14.532Z,4.97
2023-04-15T16:10:16.333Z,10.70
2023-04-15T16:15:18.318Z,10.85
2023-04-15T16:20:20.544Z,5.93
2023-04-15T16:25:22.542Z,3.47
2023-04-15T16:30:24.312Z,3.67
2023-04-15T16:35:26.063Z,3.40
2023-04-15T16:40:27.826Z,7.22
2023-04-15T16:45:29.534Z,6.28
2023-04-15T16:50:31.430Z,3.25
2023-04-15T16:55:33.153Z,3.78
2023-04-15T17:00:36.841Z,3.30
2023-04-15T17:05:38.817Z,2.25
2023-04-15T17:10:40.701Z,2.80
2023-04-15T17:15:42.408Z,3.55
2023-04-15T17:20:44.205Z,5.85
2023-04-15T17:25:46.103Z,52.97
2023-04-15T17:30:48.027Z,6.55
2023-04-15T17:35:52.839Z,5.25
2023-04-15T17:40:55.109Z,6.75
2023-04-15T17:45:58.672Z,6.60
2023-04-15T17:51:00.749Z,5.73
2023-04-15T17:56:02.467Z,3.92
2023-04-15T18:01:04.493Z,3.60
2023-04-15T18:06:06.499Z,2.97
2023-04-15T18:11:08.909Z,4.28
2023-04-15T18:16:11.154Z,3.13
2023-04-15T18:21:13.883Z,8.23
2023-04-15T18:26:19.602Z,3.67
2023-04-15T18:31:26.898Z,3.33
2023-04-15T18:36:29.432Z,3.30
2023-04-15T18:41:31.196Z,5.15
2023-04-15T18:46:32.977Z,4.72
2023-04-15T18:51:34.785Z,4.78
2023-04-15T18:56:36.630Z,2.78
2023-04-15T19:01:38.520Z,2.97
2023-04-15T19:06:40.755Z,3.30
2023-04-15T19:11:43.598Z,2.78
2023-04-15T19:16:45.362Z,2.80
2023-04-15T19:21:49.748Z,2.88
2023-04-15T19:26:51.480Z,3.40
2023-04-15T19:31:53.321Z,2.50
2023-04-15T19:36:56.155Z,2.65
2023-04-15T19:41:58.973Z,2.65
2023-04-15T19:47:00.924Z,3.03
2023-04-15T19:52:04.396Z,3.35
2023-04-15T19:57:06.669Z,3.10
2023-04-15T20:02:09.368Z,2.80
2023-04-15T20:07:15.116Z,2.95
2023-04-15T20:12:49.894Z,3.05
2023-04-15T20:17:52.900Z,2.97
2023-04-15T20:22:54.665Z,3.67
2023-04-15T20:27:59.618Z,3.20
2023-04-15T20:33:02.699Z,2.50
2023-04-15T20:38:04.868Z,2.50
2023-04-15T20:43:06.685Z,3.47
2023-04-15T20:48:08.703Z,2.28
2023-04-15T20:53:10.619Z,2.83
2023-04-15T20:58:12.706Z,2.10
2023-04-15T21:03:14.767Z,2.95
2023-04-15T21:08:29.057Z,2.83
2023-04-15T21:13:30.903Z,5.45
2023-04-15T21:18:32.584Z,4.88
2023-04-15T21:23:35.948Z,4.53
2023-04-15T21:28:38.950Z,4.35
2023-04-15T21:33:40.622Z,4.70
2023-04-15T21:38:42.311Z,6.68
2023-04-15T21:43:44.099Z,5.97
2023-04-15T21:48:46.410Z,4.78
2023-04-15T21:53:48.221Z,6.10
2023-04-15T21:58:50.258Z,4.47
2023-04-15T22:03:53.365Z,5.25
2023-04-15T22:08:57.730Z,6.78
2023-04-15T22:19:03.027Z,6.10
2023-04-15T22:24:32.929Z,8.65
2023-04-15T22:29:28.074Z,4.82
2023-04-15T22:34:29.786Z,4.88
2023-04-15T22:39:31.652Z,8.20
2023-04-15T22:44:33.525Z,7.88
2023-04-15T22:49:36.144Z,6.18
2023-04-15T22:54:37.860Z,6.10
2023-04-15T22:59:39.652Z,7.72
2023-04-15T23:04:41.508Z,6.38
2023-04-15T23:09:43.387Z,7.22
2023-04-15T23:14:45.172Z,6.80
2023-04-15T23:19:46.909Z,7.38
2023-04-15T23:24:48.672Z,6.95
2023-04-15T23:29:50.364Z,8.07
2023-04-15T23:34:52.228Z,6.65
2023-04-15T23:39:55.712Z,7.22
2023-04-15T23:44:57.547Z,6.07
2023-04-15T23:49:59.299Z,6.00
2023-04-15T23:55:01.261Z,6.43
